Airfield :
LOGIN :

Register | Disclaimer

   EN    FR    IT 

 










Legend :    VFR   Marginal VFR   IFR   Intensive IFR   Very Intensive IFR
Visi :
Ceiling :
>= 8 km
>= 3000ft
5 to 8 km
1000 to 3000 ft
1500m to 5 km
500 to 1000 ft
800 to 1500m
200 to 500 ft
< 800m
< 200 ft
Symbols :   Thunderstorms  Fog  Heavy snow  Heavy precipitations  Wind > 20 kt
SIGMETs :     Misc.  Thunderstorms  Icing  Turbulence  Mountain Waves  Volcanic Ashes







- Airport Elevation : 16 ft
- IATA code : SDR


LEXJ - Santander Cantabria

CURRENT METAR :
  • 220930Z 05002KT CAVOK 22/18 Q1023

EXPIRED METARs :
  • 220900Z 13003KT 080V160 CAVOK 21/17 Q1023
  • 220830Z VRB02KT 9000 NSC 20/18 Q1023
  • 220800Z 16003KT 110V250 8000 NSC 19/18 Q1022
  • 220730Z VRB01KT 7000 NSC 18/18 Q1023
  • 220700Z VRB02KT 6000 NSC 17/17 Q1022

TAF TAF LEXJ
Valid from the 22 at 09:00 until the 23 at 09:00 UTC


220800Z 2209/2309 VRB05KT 9999 FEW020 TX25/2214Z TN16/2306Z
PROB40
TEMPO 2213/2215 34010KT
PROB40
TEMPO 2221/2307 3000 BR
PROB30
TEMPO 2300/2307 1500 BCFG BKN002
No reported NOTAMs for that airfield.



MET'MAP, your aeronautical weather chart ! - Copyright ORBIFLY December 2007 - Disclaimer

ORBIFLY MET'MAP TEAM :

Programming & Development : Alexandra Zaïnal
Concept & Development : Baudouin d'Aumeries
Co-Development & Prog : Marc-Olivier Méhu
Technical & hardware support : Manuel Goepfert

Contact : metmap@orbifly.com




SOURCES & CREDITS :

   NOAA